Latest Coastal Weather Observations for Karratha

IDW60701

Issued at 9:01 pm WST Friday 6 May 2016 (issued every 10 minutes, with the page automatically refreshed every 10 minutes)

About coastal observations | Map of coastal stations | Coastal observations for WA | Marine services | Other Formats
Station Details ID: 004083 Name: KARRATHA AERO Lat: -20.71 Lon: 116.77 Height: 5.3 m
Data from the previous 72 hours. | See also: Recent months at Karratha
Date/Time
WST
Temp

°C
Wind Pressure Rain
since 9am
mm
Weather Cloud Vis
km
Sea
Height
m
Swell
Dir
 
Speed
knots
Gust
knots
hPa Trend Height
m
Period
s
Dir
06/09:00pm 24.1 CALM 0 0 1008.0 - 20.6 - Partly cloudy 10 - - - -
06/08:30pm 24.0 CALM 0 0 1007.8 - 20.6 - Partly cloudy 10 - - - -
06/08:00pm 24.1 CALM 0 0 1007.4 - 20.6 - Partly cloudy 10 - - - -
06/07:30pm 24.0 CALM 0 0 1007.2 - 20.6 - Partly cloudy 10 - - - -
06/07:00pm 23.9 CALM 0 0 1007.1 - 20.6 - - 10 - - - -
06/06:30pm 24.1 CALM 0 0 1006.9 - 20.6 - - 10 - - - -
06/06:00pm 24.1 CALM 0 0 1006.8 - 20.6 - Mostly clear 10 - - - -
06/05:30pm 24.1 NW 3 4 1006.8 - 20.6 - Partly cloudy 10 - - - -
06/05:00pm 24.0 CALM 0 0 1007.0 - 20.6 - Partly cloudy 10 - - - -
06/04:30pm 23.9 CALM 0 0 1006.9 - 20.6 - Cloudy 10 - - - -
06/04:00pm 23.9 N 1 4 1007.2 - 20.6 - Cloudy 10 - - - -
06/03:30pm 23.9 NNE 5 6 1007.3 - 20.6 - Partly cloudy 10 - - - -
06/03:00pm 23.7 NE 5 6 1007.3 - 20.6 - Mostly clear 10 - - - -
06/02:30pm 23.7 NE 4 5 1007.7 - 20.6 - Partly cloudy 10 - - - -
06/02:22pm 23.5 NE 5 6 1007.9 - 20.6 - Partly cloudy 10 - - - -
06/02:08pm 23.3 NE 6 7 1007.9 - 20.6 - Partly cloudy 10 - - - -
06/02:00pm 23.5 NE 5 7 1007.8 - 20.6 - Partly cloudy 10 - - - -
06/01:53pm 23.0 ENE 5 6 1008.0 - 20.6 - Partly cloudy 10 - - - -
06/01:30pm 22.9 ENE 6 7 1008.3 - 20.6 - Partly cloudy 10 - - - -
06/01:15pm 22.8 NE 3 6 1008.4 - 20.6 - Partly cloudy 9 - - - -
06/01:00pm 23.1 E 6 8 1008.4 - 20.4 - Partly cloudy 5 - - - -
06/12:40pm 22.6 SE 2 5 1009.1 - 19.4 - Partly cloudy 4 - - - -
06/12:30pm 22.7 SE 5 6 1009.1 - 19.2 - Partly cloudy 4 - - - -
06/12:03pm 22.6 SSE 7 8 1009.6 - 18.0 - Partly cloudy 5 - - - -
06/12:00pm 22.7 SSE 6 7 1009.6 - 18.0 Rain Cloudy 5 - - - -
06/11:48am 22.5 SSE 7 8 1009.9 - 17.6 - Partly cloudy 2 - - - -
06/11:42am 22.8 SSE 7 8 1009.9 - 16.0 - Partly cloudy 6 - - - -
06/11:30am 22.7 S 6 8 1010.1 - 15.8 - Partly cloudy 4 - - - -
06/11:03am 22.5 S 8 9 1010.4 - 14.2 - Partly cloudy 5 - - - -
06/11:00am 22.4 S 8 9 1010.5 - 14.0 - Partly cloudy 4 - - - -
06/10:30am 22.5 SSW 8 9 1011.0 - 10.6 - Partly cloudy 2 - - - -
06/10:00am 23.1 SW 6 8 1011.2 - 1.8 - Partly cloudy 3 - - - -
06/09:55am 23.3 SSW 8 12 1011.2 - 0.6 - Partly cloudy 5 - - - -
06/09:49am 23.2 SSW 10 12 1010.9 - 0.0 - Partly cloudy 10 - - - -
06/09:30am 23.6 SSW 11 14 1010.6 - 0.0 - Partly cloudy 10 - - - -
06/09:00am 23.9 SSW 11 14 1010.6 - 0.0 - Mostly clear 10 - - - -
06/08:30am 24.0 SSW 11 14 1010.6 - 0.0 - Partly cloudy 10 - - - -
06/08:00am 24.1 SSW 11 14 1010.1 - 0.0 - - 10 - - - -
06/07:30am 23.5 SSW 11 14 1009.9 - 0.0 - - 10 - - - -
06/07:00am 23.3 SSW 11 13 1009.5 - 0.0 - - 10 - - - -
06/06:30am 23.2 SSW 9 12 1009.2 - 0.0 - - 10 - - - -
06/06:00am 23.5 SSW 9 11 1009.0 - 0.0 - - 10 - - - -
06/05:30am 24.0 SSW 11 13 1008.5 - 0.0 - - 10 - - - -
06/05:00am 24.5 SSW 8 10 1008.5 - 0.0 - - 10 - - - -
06/04:30am 24.9 SW 7 8 1008.7 - 0.0 - - 10 - - - -
06/04:00am 25.0 SW 5 6 1009.1 - 0.0 - - 10 - - - -
06/03:30am 25.0 WSW 5 7 1009.3 - 0.0 - - 10 - - - -
06/03:00am 24.9 SW 8 9 1009.1 - 0.0 - - 10 - - - -
06/02:35am 24.8 WSW 7 8 1009.7 - 0.0 - Partly cloudy 10 - - - -
06/02:30am 24.8 SW 6 9 1009.6 - 0.0 - Partly cloudy 10 - - - -
06/02:00am 24.8 SW 7 8 1009.7 - 0.0 - Partly cloudy 10 - - - -
06/01:38am 25.9 SW 6 8 1010.0 - 0.0 - Partly cloudy 10 - - - -
06/01:30am 26.0 SW 7 8 1010.1 - 0.0 - Partly cloudy 10 - - - -
06/01:00am 26.0 SW 6 8 1009.9 - 0.0 - Partly cloudy 10 - - - -
06/12:30am 26.1 SW 6 7 1009.9 - 0.0 - - 10 - - - -
06/12:00am 26.1 SW 4 6 1010.0 - 0.0 - Mostly clear 10 - - - -
 
Date/Time
WST
Temp

°C
Wind Pressure Rain
since 9am
mm
Weather Cloud Vis
km
Sea
Height
m
Swell
Dir
 
Speed
knots
Gust
knots
hPa Trend Height
m
Period
s
Dir
05/11:30pm 26.5 SW 6 10 1010.4 - 0.0 - - 10 - - - -
05/11:00pm 26.6 SW 10 12 1010.4 - 0.0 - - 10 - - - -
05/10:30pm 26.8 WSW 9 11 1010.7 - 0.0 - Partly cloudy 10 - - - -
05/10:21pm 26.8 WSW 9 11 1010.8 - 0.0 - Partly cloudy 10 - - - -
05/10:05pm 26.9 W 9 12 1010.9 - 0.0 - Partly cloudy 10 - - - -
05/10:00pm 27.0 W 10 12 1011.0 - 0.0 - Partly cloudy 10 - - - -
05/09:30pm 27.4 W 9 11 1010.8 - 0.0 - - 10 - - - -
05/09:00pm 27.4 WSW 9 11 1010.6 - 0.0 - - 10 - - - -
05/08:30pm 27.3 SW 8 10 1010.2 - 0.0 - - 10 - - - -
05/08:00pm 27.4 WSW 10 12 1009.9 - 0.0 - - 10 - - - -
05/07:30pm 27.4 WSW 10 13 1010.0 - 0.0 - - 10 - - - -
05/07:00pm 27.6 W 11 12 1009.7 - 0.0 - - 10 - - - -
05/06:30pm 27.8 W 9 11 1009.8 - 0.0 - - 10 - - - -
05/06:00pm 28.0 WNW 7 10 1009.8 - 0.0 - - 10 - - - -
05/05:30pm 28.2 WNW 8 9 1009.6 - 0.0 - - 10 - - - -
05/05:00pm 28.2 W 9 12 1009.3 - 0.0 - - 10 - - - -
05/04:30pm 28.6 W 10 12 1009.5 - 0.0 - - 10 - - - -
05/04:00pm 28.9 W 9 11 1009.7 - 0.0 - - 10 - - - -
05/03:30pm 28.7 WNW 9 11 1009.7 - 0.0 - - 10 - - - -
05/03:00pm 28.7 WNW 10 12 1009.5 - 0.0 - - 10 - - - -
05/02:30pm 29.1 W 9 11 1009.2 - 0.0 - - 10 - - - -
05/02:00pm 29.3 WNW 7 9 1009.2 - 0.0 - - 10 - - - -
05/01:30pm 28.9 WNW 7 10 1009.2 - 0.0 - - 10 - - - -
05/01:00pm 29.0 WNW 10 11 1009.8 - 0.0 - - 10 - - - -
05/12:30pm 28.5 WNW 9 11 1010.1 - 0.0 - Partly cloudy 10 - - - -
05/12:00pm 29.0 WNW 9 11 1010.7 - 0.0 - - 10 - - - -
05/11:30am 29.0 WNW 9 11 1011.1 - 0.0 - - 10 - - - -
05/11:00am 28.9 W 9 11 1011.4 - 0.0 - - 10 - - - -
05/10:30am 28.7 WSW 9 11 1011.5 - 0.0 - - 10 - - - -
05/10:00am 28.4 WSW 9 11 1011.8 - 0.0 - - 10 - - - -
05/09:30am 28.1 WSW 9 11 1011.7 - 0.0 - - 10 - - - -
05/09:00am 27.7 SW 7 8 1011.6 - 0.0 - - 10 - - - -
05/08:30am 27.3 SW 7 8 1011.3 - 0.0 - - 10 - - - -
05/08:00am 27.1 SW 7 8 1011.3 - 0.0 - - 10 - - - -
05/07:30am 26.9 WSW 7 9 1011.3 - 0.0 - - 10 - - - -
05/07:00am 26.5 SW 6 7 1010.8 - 0.0 - - 10 - - - -
05/06:30am 26.6 WSW 7 8 1010.6 - 0.0 - - 10 - - - -
05/06:00am 26.9 WSW 9 10 1010.3 - 0.0 - - 10 - - - -
05/05:30am 27.0 WSW 6 8 1010.0 - 0.0 - - 10 - - - -
05/05:00am 26.9 W 6 9 1010.0 - 0.0 - - 10 - - - -
05/04:30am 26.4 W 4 6 1009.6 - 0.0 - - 10 - - - -
05/04:00am 26.5 S 4 5 1009.1 - 0.0 - Partly cloudy 10 - - - -
05/03:30am 27.2 W 7 8 1009.8 - 0.0 - - 10 - - - -
05/03:00am 27.1 W 8 10 1010.2 - 0.0 - - 10 - - - -
05/02:30am 27.2 SW 9 10 1010.0 - 0.0 - - 10 - - - -
05/02:00am 27.4 W 10 11 1010.4 - 0.0 - - 10 - - - -
05/01:30am 27.4 WSW 9 11 1010.4 - 0.0 - - 10 - - - -
05/01:00am 27.4 WSW 6 8 1010.4 - 0.0 - - 10 - - - -
05/12:30am 27.3 WSW 6 7 1010.5 - 0.0 - - 10 - - - -
05/12:00am 27.5 WSW 7 8 1010.7 - 0.0 - - 10 - - - -
 
Date/Time
WST
Temp

°C
Wind Pressure Rain
since 9am
mm
Weather Cloud Vis
km
Sea
Height
m
Swell
Dir
 
Speed
knots
Gust
knots
hPa Trend Height
m
Period
s
Dir
04/11:30pm 27.6 W 8 10 1010.9 - 0.0 - - 10 - - - -
04/11:08pm 27.6 W 8 9 1011.2 - 0.0 - Partly cloudy 10 - - - -
04/11:00pm 27.5 W 8 10 1011.1 - 0.0 - Partly cloudy 10 - - - -
04/10:42pm 27.8 W 8 10 1011.2 - 0.0 - Partly cloudy 10 - - - -
04/10:30pm 28.1 W 9 11 1011.2 - 0.0 - Partly cloudy 10 - - - -
04/10:00pm 28.2 W 10 11 1011.2 - 0.0 - - 10 - - - -
04/09:30pm 28.1 W 11 13 1011.5 - 0.0 - - 10 - - - -
04/09:00pm 28.1 W 13 16 1011.6 - 0.0 - - 10 - - - -
04/08:30pm 28.3 W 11 14 1011.2 - 0.0 - - 10 - - - -
04/08:00pm 28.5 W 11 14 1011.0 - 0.0 - - 10 - - - -
04/07:30pm 28.5 W 11 14 1010.6 - 0.0 - - 10 - - - -
04/07:00pm 28.9 W 11 13 1010.6 - 0.0 - - 10 - - - -
04/06:30pm 29.0 WNW 11 14 1010.2 - 0.0 - - 10 - - - -
04/06:00pm 29.1 W 11 14 1009.7 - 0.0 - - 10 - - - -
04/05:30pm 29.3 W 13 15 1009.4 - 0.0 - - 10 - - - -
04/05:00pm 29.7 W 15 17 1009.2 - 0.0 - - 10 - - - -
04/04:30pm 30.4 W 13 16 1009.0 - 0.0 - - 10 - - - -
04/04:00pm 31.3 WNW 12 14 1008.7 - 0.0 - - 10 - - - -
04/03:30pm 32.0 WNW 11 15 1008.8 - 0.0 - - 10 - - - -
04/03:00pm 31.9 NW 11 13 1008.6 - 0.0 - - 10 - - - -
04/02:30pm 32.5 NW 10 13 1008.8 - 0.0 - - 10 - - - -
04/02:00pm 32.5 WNW 11 14 1009.0 - 0.0 - - 10 - - - -
04/01:30pm 32.0 WNW 9 13 1009.1 - 0.0 - - 10 - - - -
04/01:00pm 31.8 NW 8 11 1009.5 - 0.0 - - 10 - - - -
04/12:30pm 31.6 WNW 8 10 1010.0 - 0.0 - - 10 - - - -
04/12:00pm 31.1 WNW 8 10 1010.3 - 0.0 - - 10 - - - -
04/11:30am 30.8 WNW 8 9 1010.9 - 0.0 - - 10 - - - -
04/11:00am 31.2 W 6 8 1011.5 - 0.0 - - 10 - - - -
04/10:30am 30.7 W 7 8 1011.9 - 0.0 - - 10 - - - -
04/10:00am 29.8 W 4 6 1012.3 - 0.0 - - 10 - - - -
04/09:30am 29.3 W 5 7 1012.3 - 0.0 - - 10 - - - -
04/09:00am 28.1 W 3 5 1012.2 - 0.0 - - 10 - - - -
04/08:30am 27.6 W 1 4 1012.1 - 0.0 - - 10 - - - -
04/08:00am 26.6 CALM 0 0 1011.9 - 0.0 - - 10 - - - -
04/07:30am 25.8 CALM 0 0 1011.7 - 0.0 - - 10 - - - -
04/07:00am 24.8 CALM 0 0 1011.3 - 0.0 - - 10 - - - -
04/06:30am 24.2 CALM 0 0 1011.1 - 0.0 - - 10 - - - -
04/06:00am 23.8 CALM 0 0 1010.9 - 0.0 - - 10 - - - -
04/05:30am 23.9 CALM 0 0 1010.8 - 0.0 - - 10 - - - -
04/05:00am 24.1 SSW 3 4 1010.7 - 0.0 - - 10 - - - -
04/04:30am 24.3 SSW 5 6 1010.6 - 0.0 - - 10 - - - -
04/04:00am 24.7 SSW 5 6 1010.8 - 0.0 - - 10 - - - -
04/03:30am 24.7 SSW 5 6 1010.9 - 0.0 - - 10 - - - -
04/03:00am 24.9 SW 5 6 1011.0 - 0.0 - - 10 - - - -
04/02:30am 25.0 SW 7 8 1011.1 - 0.0 - - 10 - - - -
04/02:00am 25.2 SW 7 8 1011.3 - 0.0 - - 10 - - - -
04/01:30am 25.2 SW 6 7 1011.1 - 0.0 - - 10 - - - -
04/01:00am 25.2 SW 7 8 1011.2 - 0.0 - - 10 - - - -
04/12:30am 25.4 SW 7 8 1011.4 - 0.0 - - 10 - - - -
04/12:00am 25.5 SW 7 8 1011.5 - 0.0 - - 10 - - - -
 
Date/Time
WST
Temp

°C
Wind Pressure Rain
since 9am
mm
Weather Cloud Vis
km
Sea
Height
m
Swell
Dir
 
Speed
knots
Gust
knots
hPa Trend Height
m
Period
s
Dir
03/11:30pm 25.8 SW 5 6 1011.5 - 0.0 - - 10 - - - -
03/11:00pm 25.9 SW 5 6 1011.6 - 0.0 - - 10 - - - -
03/10:30pm 26.3 SW 5 6 1011.7 - 0.0 - - 10 - - - -
03/10:00pm 27.7 W 7 8 1011.8 - 0.0 - - 10 - - - -
03/09:30pm 27.8 W 7 8 1011.8 - 0.0 - - 10 - - - -

Other Formats:

Comma delimited format used in spreadsheet applications
http://www.bom.gov.au/fwo/IDW60701/IDW60701.95307.axf

JavaScript Object Notation format (JSON) in row-major order
http://www.bom.gov.au/fwo/IDW60701/IDW60701.95307.json